Columbia, PA

3:55 AM EDT on March 27, 2015 (GMT -0400)
Farmdale | | Change Station
CLOSE
Current Station
Personal Weather Station
Location: Mount Joy, PA
Elevation: 400 ft
Nearby Weather Stations

Elev 400 ft 40.07 °N, 76.46 °W | Updated 13 seconds ago

Rain
Rain
42.6 °F
Feels Like 43 °F
N
0.0
Wind Variable Wind from NW
Gusts 2.7 mph

Today
High -- | Low -- °F
--% Chance of Precip.
Yesterday
High -- | Low -- °F
Precip. -- in
6:58 AM 7:24 PM
Waxing Crescent, 50% visible
Pressure 29.77 in
Visibility 8.0 miles
Clouds Scattered Clouds 2300 ft
Overcast 3600 ft
Windchill 43 °F
Dew Point 42 °F
Humidity 98%
Rainfall 0.11 in
Snow Depth Not available.
UV 0 out of 12
Pollen 7.40 out of 12
Air Quality Not available.
Flu Activity Not available.
SPECI KLNS 270734Z AUTO 34006KT 8SM -RA SCT023 OVC036 06/03 A2977 RMK AO2 P0002 T00560033

More Conditions Fewer Conditions

Pressure 29.77 in
Visibility 8.0 miles
Clouds Scattered Clouds 2300 ft
Overcast 3600 ft
Windchill 43 °F
Dew Point 42 °F
Humidity 98%
Rainfall 0.11 in
Snow Depth Not available.
UV 0 out of 12
Pollen 7.40 out of 12
Air Quality Not available.
Flu Activity Not available.
SPECI KLNS 270734Z AUTO 34006KT 8SM -RA SCT023 OVC036 06/03 A2977 RMK AO2 P0002 T00560033

More Conditions Fewer Conditions

Nowcast | as of 2:40 am EDT on March 27, 2015

Patchy rain will be across the eastern and southern portions of central Pennsylvania through 7 am. Most of the rain will be south and east of a Johnstown...State College...Williamsport line. Some snow may mix with the rain at times west of Route 99. The patches of rain are moving northeast at 40 mph.

×

10-Day Weather Forecast

Almanac

Astronomy

Mar. 27, 2015 Rise Set
Actual Time
Civil Twilight
Nautical Twilight
Astronomical Twilight
Moon
Length of Visible Light
Length of Day
Tomorrow will be .
, % of the Moon is Illuminated

Today's Extremes

State Highs State Lows

Community

WunderPhotos

Upload Photos

1,808,702 photos uploaded!

WunderBlogs® & News

Nearby

Air Quality

  Air Quality AQ Index Pollutant
Not available.

Snow Depth

Station Depth Elevation

Earthquake Activity

City Distance Mag. Time & Date
Minimum magnitude displayed is 2.5.

Coastal Water Temperatures

Place Temperature

Stations

Nearby Weather Stations

Station Location Temp. Windchill Dew Point Humidity Wind Precip. Elev Updated Type